x

Nantucket Sound (44020) Wave Buoy

10:50 - Thu 11th Feb 2016 All times are EST. -5 hours from GMT.

  • Sig Wave height 4.9ft
  • Swell Direction
  • Peak Period 5s
  • Average Period 4s
  • Wind
    34mph, 40mph gusts
  • Sea Temp 40°f
  • Ar Temp 19°f
  • Sea Pressure 1015.5mb
  • Nantucket Sound
  • Nantucket Sound

More Historic Weather Station data

Upgrade to MSW Pro to gain access to the past 30 days of data for over 8000 Wavebouys and Weather Stations around the globe.

Join Pro

Comparision Forecast

View Surf forecast
   
Qui 02/11 10:50 5ft 5s 4s 34 40 mph 1015.5mb 40f 19f
9:50 5ft 5s 4s 36 45 mph 1014.4mb 40f 20f
8:50 5ft 4s 4s 36 45 mph 1013.2mb 40f 21f
7:50 4.5ft 4s 4s 38 47 mph 1011.5mb 40f 24f
6:50 4.5ft 5s 4s 29 36 mph 1010.5mb 39f 25f
5:50 4.5ft 5s 4s 31 40 mph 1009.1mb 39f 27f
4:50 3.5ft 5s 4s 27 34 mph 1007.8mb 40f 28f
3:50 3.5ft 5s 4s 27 34 mph 1006.8mb 40f 27f
2:50 3.5ft 5s 4s 25 31 mph 1005.9mb 40f 29f
1:50 2.5ft 4s 4s 25 31 mph 1005.4mb 40f 29f
12:50 2.5ft 3s 4s 25 29 mph 1005.4mb 40f 28f
11:50 2.5ft 3s 3s 20 25 mph 1005.9mb 40f 29f
10:50 2.5ft 3s 3s 22 27 mph 1005.9mb 41f 30f
6:50 2ft 4s 3s 18 22 mph 1004.9mb 40f 31f
5:50 2ft 4s 4s 16 20 mph 1004.6mb 40f 32f
4:50 2ft 4s 4s 18 20 mph 1004.1mb 40f 33f
3:50 2.5ft 4s 4s 18 22 mph 1003.6mb 41f 34f
2:50 2ft 4s 4s 20 25 mph 1003.3mb 41f 34f
1:50 1.6ft 3s 4s 20 22 mph 1003.3mb 41f 35f
12:50 2ft 11s 4s 18 20 mph 1003.7mb 41f 36f
Qua 02/10 11:50 1.6ft 11s 3s 18 20 mph 1003.9mb 41f 37f
10:50 1ft 11s 3s 13 18 mph 1004mb 41f 38f
9:50 1.3ft 15s 3s 16 18 mph 1003.7mb 41f 37f
8:50 1ft 17s 3s 18 20 mph 1003.2mb 41f 37f
7:50 1ft 6s 4s 13 16 mph 1003mb 41f 37f
6:50 1ft 12s 5s 11 13 mph 1003.2mb 41f 36f
5:50 1ft 13s 6s 7 9 mph 1002.7mb 41f 36f
4:50 1ft 13s 5s 4 7 mph 1002mb 41f 35f
3:50 1.3ft 12s 5s  -  2 mph 1001.1mb 41f 36f
2:50 1.3ft 13s 5s  -  2 mph 1000.5mb 42f 35f
1:50 1.6ft 12s 4s 4
mph
1000.5mb 41f 35f
12:50 2ft 5s 4s 4
mph
1000.9mb 41f 35f
11:50 1.6ft 5s 5s 4 7 mph 1001.3mb 41f 34f
10:50 1.3ft 11s 5s 2 4 mph 1002.1mb 41f 35f
9:50 1ft 11s 5s 2
mph
1002.9mb 41f 34f
8:50 1ft 5s 5s  -  2 mph 1003.2mb 41f 34f
7:50 1ft 5s 5s 2
mph
1003.1mb 41f 34f
6:50 1ft 5s 5s 2 4 mph 1002.9mb 41f 34f
5:50 1.3ft 7s 5s 2 4 mph 1002.7mb 41f 33f
4:50 1.6ft 6s 5s 4 7 mph 1002.5mb 41f 33f
3:50 1.6ft 5s 4s 4 9 mph 1002.3mb 41f 33f
2:50 2ft 4s 4s 7 9 mph 1002.1mb 41f 33f
1:50 2.5ft 5s 4s 4
mph
1002.7mb 41f 33f
12:50 2ft 6s 4s 7 9 mph 1002mb 41f 33f
Ter 02/09 11:50 2ft 13s 5s 9 11 mph 1002.1mb 41f 33f
10:50 1.6ft 3s 4s 11 13 mph 1002mb 41f 33f
9:50 1.6ft 14s 4s 13 16 mph 1002.4mb 41f 33f
8:50 1.6ft 3s 3s 11 16 mph 1002.3mb 41f 34f
7:50 1.6ft 3s 3s 13 16 mph 1001.8mb 41f 34f
6:50 2ft 3s 4s 16 18 mph 1001.6mb 41f 34f
5:50 2ft 3s 4s 16 18 mph 1001.4mb 41f 34f
4:50 2.5ft 5s 4s 16 20 mph 1000.5mb 41f 34f
3:50 2.5ft 6s 4s 13 18 mph 999.9mb 42f 35f
2:50 3ft 6s 4s 13 16 mph 1000.2mb 42f 34f
1:50 3.5ft 12s 4s 16 20 mph 999.9mb 42f 34f
12:50 3.5ft 13s 4s 16 20 mph 1000.4mb 41f 34f
11:50 3ft 6s 5s 16 18 mph 1001.9mb 41f 33f
10:50 2.5ft 13s 5s 13 16 mph 1002.8mb 41f 33f
9:50 2ft 4s 5s 11 13 mph 1004mb 41f 33f
8:50 2ft 5s 4s 13 16 mph 1003.9mb 41f 33f
7:50 2.5ft 5s 4s 11 13 mph 1004.7mb 41f 33f
6:50 2.5ft 3s 4s 13 18 mph 1004.5mb 41f 33f
5:50 2.5ft 4s 4s 22 29 mph 1002.6mb 41f 32f
4:50 3ft 4s 4s 16 20 mph 1005mb 41f 32f
3:50 3.5ft 4s 4s 18 22 mph 1004.8mb 42f 32f
2:50 4ft 4s 4s 18 20 mph 1005.5mb 42f 32f
1:50 4.5ft 4s 4s 20 25 mph 1005.4mb 42f 32f
12:50 4.5ft 4s 4s 22 27 mph 1005mb 42f 32f
Seg 02/08 11:50 4.5ft 4s 4s 22 27 mph 1005.1mb 41f 32f
10:50 4.5ft 4s 4s 27 31 mph 1005.2mb 41f 32f
9:50 4.5ft 4s 4s 29 34 mph 1004.6mb 41f 32f
8:50 4.5ft 4s 4s 27 34 mph 1004.1mb 42f 33f
7:50 4.5ft 5s 4s 31 38 mph 1003.5mb 42f 33f
6:50 5ft 5s 4s 31 36 mph 1002.9mb 42f 33f
5:50 5ft 5s 4s 29 36 mph 1001.8mb 42f 33f
4:50 5.5ft 5s 4s 31 38 mph 1000.5mb 42f 33f
3:50 5.5ft 5s 4s 31 40 mph 999.4mb 42f 34f
2:50 6.5ft 5s 5s 34 40 mph 998.3mb 42f 34f
1:50 6.5ft 5s 5s 34 40 mph 998.6mb 42f 33f
12:50 7ft 5s 5s 36 47 mph 999.9mb 41f 32f
11:50 6ft 5s 4s 36 43 mph 1001.3mb 41f 32f
10:50 6ft 5s 5s 36 47 mph 1002.9mb 42f 33f
9:50 6.5ft 5s 5s 36 45 mph 1003.6mb 41f 33f
8:50 6.5ft 6s 5s 38 47 mph 1003.4mb 42f 34f
7:50 6.5ft 6s 5s 40 49 mph 1003.3mb 42f 33f
6:50 7ft 6s 5s 40 49 mph 1003.5mb 42f 34f
5:50 6.5ft 5s 5s 38 47 mph 1005mb 42f 35f
4:50 7ft 5s 5s 38 47 mph 1005.4mb 42f 37f